createdAt,value
2018-08-09T00:03:26.942Z,12.83
2018-08-09T00:08:29.920Z,12.33
2018-08-09T00:13:32.903Z,14.33
2018-08-09T00:18:36.154Z,15.87
2018-08-09T00:23:39.246Z,15.63
2018-08-09T00:28:42.215Z,13.67
2018-08-09T00:33:45.297Z,13.90
2018-08-09T00:38:48.395Z,14.90
2018-08-09T00:43:51.408Z,15.77
2018-08-09T00:48:54.387Z,15.27
2018-08-09T00:53:57.471Z,13.27
2018-08-09T00:59:00.437Z,13.20
2018-08-09T01:04:03.583Z,14.27
2018-08-09T01:09:08.578Z,14.50
2018-08-09T01:14:11.633Z,13.47
2018-08-09T01:19:14.718Z,15.07
2018-08-09T01:24:17.757Z,14.53
2018-08-09T01:29:20.796Z,13.30
2018-08-09T01:34:24.032Z,14.50
2018-08-09T01:39:27.279Z,13.60
2018-08-09T01:44:30.252Z,14.97
2018-08-09T01:49:33.355Z,15.73
2018-08-09T01:54:36.419Z,14.77
2018-08-09T01:59:39.619Z,14.47
2018-08-09T02:04:42.841Z,14.23
2018-08-09T02:09:46.042Z,14.00
2018-08-09T02:14:49.037Z,14.33
2018-08-09T02:19:52.023Z,14.60
2018-08-09T02:24:55.142Z,14.50
2018-08-09T02:29:58.115Z,14.20
2018-08-09T02:35:01.079Z,15.90
2018-08-09T02:40:04.786Z,15.57
2018-08-09T02:45:07.791Z,16.67
2018-08-09T02:50:11.007Z,15.40
2018-08-09T02:55:14.031Z,16.53
2018-08-09T03:00:17.120Z,18.00
2018-08-09T03:05:20.111Z,17.00
2018-08-09T03:10:23.111Z,17.03
2018-08-09T03:15:26.085Z,16.03
2018-08-09T03:20:29.303Z,16.10
2018-08-09T03:25:32.301Z,18.30
2018-08-09T03:30:35.551Z,17.23
2018-08-09T03:35:38.548Z,16.80
2018-08-09T03:40:41.779Z,16.53
2018-08-09T03:45:44.970Z,16.70
2018-08-09T03:50:48.111Z,17.13
2018-08-09T03:55:51.076Z,17.23
2018-08-09T04:00:54.100Z,18.80
2018-08-09T04:05:57.271Z,18.43
2018-08-09T04:11:00.226Z,18.30
2018-08-09T04:16:03.524Z,18.53
2018-08-09T04:21:06.572Z,18.00
2018-08-09T04:26:09.791Z,16.90
2018-08-09T04:31:13.024Z,18.70
2018-08-09T04:36:16.094Z,17.07
2018-08-09T04:41:19.120Z,17.70
2018-08-09T04:46:22.248Z,17.23
2018-08-09T04:51:25.258Z,17.40
2018-08-09T04:56:28.540Z,17.30
2018-08-09T05:01:31.865Z,17.73
2018-08-09T05:06:35.066Z,16.60
2018-08-09T05:11:38.474Z,17.73
2018-08-09T05:16:41.475Z,17.80
2018-08-09T05:21:44.677Z,15.77
2018-08-09T05:26:47.666Z,15.07
2018-08-09T05:31:50.699Z,16.73
2018-08-09T05:36:53.791Z,15.87
2018-08-09T05:41:57.126Z,15.20
2018-08-09T05:47:00.371Z,14.80
2018-08-09T05:52:03.573Z,15.30
2018-08-09T05:57:06.582Z,16.47
2018-08-09T06:02:09.824Z,14.83
2018-08-09T06:07:12.823Z,16.27
2018-08-09T06:12:16.168Z,16.80
2018-08-09T06:17:19.360Z,17.00
2018-08-09T06:22:22.791Z,16.80
2018-08-09T06:27:25.979Z,15.80
2018-08-09T06:32:29.302Z,16.80
2018-08-09T06:37:32.267Z,14.70
2018-08-09T06:42:35.285Z,15.07
2018-08-09T06:47:38.772Z,14.70
2018-08-09T06:52:42.429Z,12.90
2018-08-09T06:57:45.752Z,14.17
2018-08-09T07:02:48.776Z,14.30
2018-08-09T07:07:52.100Z,15.40
2018-08-09T07:12:55.183Z,14.40
2018-08-09T07:17:58.205Z,14.60
2018-08-09T07:23:01.392Z,15.00
2018-08-09T07:28:05.872Z,13.97
2018-08-09T07:33:08.879Z,12.70
2018-08-09T07:38:12.232Z,13.23
2018-08-09T07:43:15.377Z,13.60
2018-08-09T07:48:18.457Z,12.20
2018-08-09T07:53:21.513Z,13.20
2018-08-09T07:58:24.671Z,12.67
2018-08-09T08:03:27.679Z,12.03
2018-08-09T08:08:30.838Z,13.50
2018-08-09T08:13:33.987Z,13.47
2018-08-09T08:18:37.404Z,11.60
2018-08-09T08:23:40.469Z,11.37
2018-08-09T08:28:43.811Z,11.53
2018-08-09T08:33:46.825Z,12.30
2018-08-09T08:38:50.046Z,12.67
2018-08-09T08:43:53.337Z,23.10
2018-08-09T08:48:56.543Z,11.77
2018-08-09T08:53:59.552Z,10.67
2018-08-09T08:59:02.720Z,10.23
2018-08-09T09:04:05.843Z,11.07
2018-08-09T09:09:11.901Z,11.20
2018-08-09T09:14:15.178Z,11.23
2018-08-09T09:19:18.350Z,10.80
2018-08-09T09:24:21.360Z,11.47
2018-08-09T09:29:24.426Z,10.87
2018-08-09T09:34:27.507Z,10.30
2018-08-09T09:39:30.580Z,11.10
2018-08-09T09:44:33.793Z,10.60
2018-08-09T09:49:36.999Z,10.30
2018-08-09T09:54:40.007Z,10.90
2018-08-09T09:59:43.268Z,10.53
2018-08-09T10:04:46.528Z,10.20
2018-08-09T10:09:49.504Z,9.70
2018-08-09T10:14:52.569Z,11.03
2018-08-09T10:19:55.911Z,10.33
2018-08-09T10:24:59.104Z,10.33
2018-08-09T10:30:02.359Z,10.67
2018-08-09T10:35:05.879Z,11.10
2018-08-09T10:40:08.919Z,8.80
2018-08-09T10:45:12.037Z,9.00
2018-08-09T10:50:15.204Z,10.17
2018-08-09T10:55:18.219Z,10.73
2018-08-09T11:00:21.326Z,10.17
2018-08-09T11:05:24.365Z,10.00
2018-08-09T11:10:27.627Z,10.80
2018-08-09T11:15:30.831Z,10.50
2018-08-09T11:20:33.961Z,10.80
2018-08-09T11:25:37.001Z,10.77
2018-08-09T11:30:40.051Z,10.80
2018-08-09T11:35:43.033Z,10.90
2018-08-09T11:40:46.273Z,10.87
2018-08-09T11:45:49.272Z,11.43
2018-08-09T11:50:52.530Z,11.23
2018-08-09T11:55:56.333Z,10.07
2018-08-09T12:00:59.507Z,9.10
2018-08-09T12:06:02.731Z,8.87
2018-08-09T12:11:05.812Z,8.60
2018-08-09T12:16:09.010Z,8.73
2018-08-09T12:21:12.376Z,8.20
2018-08-09T12:26:15.692Z,10.10
2018-08-09T12:31:19.007Z,9.83
2018-08-09T12:36:22.197Z,8.30
2018-08-09T12:41:25.254Z,9.47
2018-08-09T12:46:28.412Z,8.00
2018-08-09T12:51:31.725Z,9.80
2018-08-09T12:56:35.107Z,9.20
2018-08-09T13:01:38.319Z,9.17
2018-08-09T13:06:41.415Z,10.67
2018-08-09T13:11:44.745Z,9.23
2018-08-09T13:16:48.014Z,3.40
2018-08-09T13:21:51.653Z,4.40
2018-08-09T13:26:54.760Z,5.40
2018-08-09T13:31:57.864Z,3.93
2018-08-09T13:37:00.956Z,4.17
2018-08-09T13:42:04.044Z,3.90
2018-08-09T13:47:07.244Z,4.93
2018-08-09T13:52:10.716Z,6.47
2018-08-09T13:57:13.851Z,7.23
2018-08-09T14:02:16.969Z,6.10
2018-08-09T14:07:20.055Z,5.80
2018-08-09T14:12:23.252Z,5.80
2018-08-09T14:17:26.443Z,6.27
2018-08-09T14:22:29.799Z,8.07
2018-08-09T14:27:33.040Z,7.00
2018-08-09T14:32:36.385Z,6.60
2018-08-09T14:37:40.419Z,5.90
2018-08-09T14:42:43.831Z,6.50
2018-08-09T14:47:47.123Z,6.03
2018-08-09T14:52:50.344Z,5.33
2018-08-09T14:57:53.677Z,4.97
2018-08-09T15:02:56.900Z,4.00
2018-08-09T15:08:00.996Z,4.40
2018-08-09T15:13:04.193Z,4.10
2018-08-09T15:18:07.240Z,5.73
2018-08-09T15:23:10.289Z,3.90
2018-08-09T15:28:13.356Z,3.67
2018-08-09T15:33:16.399Z,5.90
2018-08-09T15:38:19.975Z,3.10
2018-08-09T15:43:23.172Z,3.20
2018-08-09T15:48:26.161Z,3.17
2018-08-09T15:53:29.665Z,3.53
2018-08-09T15:58:32.881Z,3.97
2018-08-09T16:03:36.228Z,9.33
2018-08-09T16:08:39.623Z,3.70
2018-08-09T16:13:43.124Z,3.50
2018-08-09T16:18:46.380Z,3.60
2018-08-09T16:23:49.777Z,3.23
2018-08-09T16:28:52.909Z,3.70
2018-08-09T16:33:56.606Z,3.47
2018-08-09T16:38:59.988Z,3.80
2018-08-09T16:44:03.198Z,3.43
2018-08-09T16:49:06.569Z,3.33
2018-08-09T16:54:10.050Z,10.30
2018-08-09T16:59:13.174Z,3.23
2018-08-09T17:04:16.288Z,4.37
2018-08-09T17:09:19.554Z,3.43
2018-08-09T17:14:22.630Z,3.73
2018-08-09T17:19:25.797Z,3.20
2018-08-09T17:24:28.994Z,3.43
2018-08-09T17:29:32.152Z,3.30
2018-08-09T17:34:35.359Z,3.40
2018-08-09T17:39:38.482Z,3.80
2018-08-09T17:44:41.707Z,4.20
2018-08-09T17:49:45.123Z,4.70
2018-08-09T17:54:48.570Z,4.80
2018-08-09T17:59:52.284Z,3.70
2018-08-09T18:04:55.370Z,3.00
2018-08-09T18:09:58.698Z,3.20
2018-08-09T18:15:01.806Z,2.67
2018-08-09T18:20:09.932Z,4.37
2018-08-09T18:25:14.033Z,3.93
2018-08-09T18:30:18.432Z,3.07
2018-08-09T18:35:21.805Z,4.80
2018-08-09T18:40:26.645Z,3.43
2018-08-09T18:45:29.779Z,4.53
2018-08-09T18:50:33.266Z,3.53
2018-08-09T18:55:36.599Z,21.53
2018-08-09T19:00:39.972Z,6.13
2018-08-09T19:05:43.406Z,2.70
2018-08-09T19:10:46.542Z,2.80
2018-08-09T19:15:49.629Z,2.90
2018-08-09T19:20:53.335Z,3.00
2018-08-09T19:25:56.427Z,2.57
2018-08-09T19:30:59.936Z,2.83
2018-08-09T19:36:03.212Z,2.90
2018-08-09T19:41:07.202Z,2.90
2018-08-09T19:46:10.753Z,2.73
2018-08-09T19:51:14.117Z,2.87
2018-08-09T19:56:17.452Z,2.60
2018-08-09T20:01:20.599Z,2.77
2018-08-09T20:06:23.963Z,2.57
2018-08-09T20:11:27.375Z,2.77
2018-08-09T20:16:30.527Z,2.20
2018-08-09T20:21:33.706Z,2.20
2018-08-09T20:26:37.071Z,2.37
2018-08-09T20:31:40.488Z,2.23
2018-08-09T20:36:43.976Z,2.50
2018-08-09T20:41:47.454Z,2.97
2018-08-09T20:46:50.531Z,1.63
2018-08-09T20:51:53.965Z,2.00
2018-08-09T20:56:57.152Z,2.00
2018-08-09T21:02:00.632Z,1.87
2018-08-09T21:07:03.755Z,1.90
2018-08-09T21:12:06.997Z,1.70
2018-08-09T21:17:10.307Z,1.93
2018-08-09T21:22:13.524Z,1.90
2018-08-09T21:27:16.947Z,1.87
2018-08-09T21:32:20.353Z,1.73
2018-08-09T21:37:23.390Z,2.10
2018-08-09T21:42:26.749Z,2.00
2018-08-09T21:47:30.002Z,1.80
2018-08-09T21:52:33.383Z,2.03
2018-08-09T21:57:36.692Z,1.80
2018-08-09T22:02:39.989Z,2.00
2018-08-09T22:07:49.079Z,2.30
2018-08-09T22:12:57.609Z,2.50
2018-08-09T22:18:06.395Z,2.30
2018-08-09T22:23:09.456Z,2.30
2018-08-09T22:28:12.612Z,1.93
2018-08-09T22:33:15.842Z,2.07
2018-08-09T22:38:18.880Z,2.27
2018-08-09T22:43:21.923Z,2.13
2018-08-09T22:48:25.078Z,2.13
2018-08-09T22:53:28.142Z,2.13
2018-08-09T22:58:31.643Z,2.60
2018-08-09T23:03:35.130Z,2.50
2018-08-09T23:08:38.343Z,2.30
2018-08-09T23:13:41.392Z,2.10
2018-08-09T23:18:44.727Z,2.10
2018-08-09T23:23:48.268Z,1.77
2018-08-09T23:28:51.527Z,1.63
2018-08-09T23:33:54.633Z,1.30
2018-08-09T23:38:57.647Z,1.30
2018-08-09T23:44:00.648Z,1.07
2018-08-09T23:49:03.893Z,0.93
2018-08-09T23:54:07.186Z,1.10
2018-08-09T23:59:10.300Z,1.20
